createdAt,value
2023-02-03T00:00:54.774Z,89231.00
2023-02-03T00:01:54.782Z,89231.00
2023-02-03T00:02:54.738Z,89224.00
2023-02-03T00:03:54.675Z,89224.00
2023-02-03T00:04:54.657Z,89226.00
2023-02-03T00:05:54.629Z,89228.00
2023-02-03T00:06:54.599Z,89222.00
2023-02-03T00:07:54.572Z,89224.00
2023-02-03T00:08:54.542Z,89222.00
2023-02-03T00:09:54.511Z,89214.00
2023-02-03T00:10:54.498Z,89208.00
2023-02-03T00:11:54.466Z,89204.00
2023-02-03T00:12:54.458Z,89200.00
2023-02-03T00:13:54.415Z,89202.00
2023-02-03T00:14:54.409Z,89198.00
2023-02-03T00:15:54.368Z,89198.00
2023-02-03T00:16:54.355Z,89200.00
2023-02-03T00:17:54.326Z,89198.00
2023-02-03T00:18:54.317Z,89198.00
2023-02-03T00:19:54.295Z,89198.00
2023-02-03T00:20:54.272Z,89198.00
2023-02-03T00:21:54.299Z,89198.00
2023-02-03T00:22:54.238Z,89196.00
2023-02-03T00:23:54.210Z,89192.00
2023-02-03T00:24:54.196Z,89190.00
2023-02-03T00:25:54.159Z,89190.00
2023-02-03T00:26:54.137Z,89188.00
2023-02-03T00:27:54.164Z,89184.00
2023-02-03T00:28:54.094Z,89186.00
2023-02-03T00:29:54.062Z,89178.00
2023-02-03T00:30:54.077Z,89176.00
2023-02-03T00:31:54.210Z,89176.00
2023-02-03T00:32:54.006Z,89178.00
2023-02-03T00:33:53.956Z,89180.00
2023-02-03T00:34:53.932Z,89180.00
2023-02-03T00:35:53.902Z,89178.00
2023-02-03T00:36:53.879Z,89178.00
2023-02-03T00:37:53.853Z,89180.00
2023-02-03T00:38:53.860Z,89184.00
2023-02-03T00:39:53.811Z,89186.00
2023-02-03T00:40:53.781Z,89182.00
2023-02-03T00:41:53.753Z,89180.00
2023-02-03T00:42:53.744Z,89182.00
2023-02-03T00:43:53.713Z,89182.00
2023-02-03T00:44:53.677Z,89182.00
2023-02-03T00:45:53.757Z,89178.00
2023-02-03T00:46:53.622Z,89178.00
2023-02-03T00:47:53.609Z,89176.00
2023-02-03T00:48:53.568Z,89178.00
2023-02-03T00:49:53.548Z,89176.00
2023-02-03T00:50:53.520Z,89173.00
2023-02-03T00:51:53.486Z,89173.00
2023-02-03T00:52:53.460Z,89167.00
2023-02-03T00:53:53.427Z,89169.00
2023-02-03T00:54:53.409Z,89165.00
2023-02-03T00:55:53.382Z,89165.00
2023-02-03T00:56:53.353Z,89161.00
2023-02-03T00:57:53.323Z,89163.00
2023-02-03T00:58:53.292Z,89163.00
2023-02-03T00:59:53.264Z,89167.00
2023-02-03T01:00:53.296Z,89173.00
2023-02-03T01:01:53.322Z,89174.00
2023-02-03T01:02:53.235Z,89178.00
2023-02-03T01:03:53.183Z,89178.00
2023-02-03T01:04:53.175Z,89178.00
2023-02-03T01:05:53.125Z,89180.00
2023-02-03T01:06:53.090Z,89186.00
2023-02-03T01:07:53.050Z,89186.00
2023-02-03T01:08:53.038Z,89186.00
2023-02-03T01:09:52.997Z,89190.00
2023-02-03T01:10:52.971Z,89192.00
2023-02-03T01:11:52.934Z,89190.00
2023-02-03T01:12:52.909Z,89184.00
2023-02-03T01:13:52.893Z,89186.00
2023-02-03T01:14:52.862Z,89186.00
2023-02-03T01:15:52.812Z,89188.00
2023-02-03T01:16:52.873Z,89188.00
2023-02-03T01:17:52.759Z,89184.00
2023-02-03T01:18:52.733Z,89180.00
2023-02-03T01:19:52.694Z,89178.00
2023-02-03T01:20:52.663Z,89173.00
2023-02-03T01:21:52.633Z,89165.00
2023-02-03T01:22:52.637Z,89163.00
2023-02-03T01:23:52.576Z,89159.00
2023-02-03T01:24:52.579Z,89157.00
2023-02-03T01:25:52.539Z,89155.00
2023-02-03T01:26:52.508Z,89151.00
2023-02-03T01:27:52.534Z,89149.00
2023-02-03T01:28:52.441Z,89149.00
2023-02-03T01:29:52.410Z,89147.00
2023-02-03T01:30:52.542Z,89145.00
2023-02-03T01:31:52.463Z,89141.00
2023-02-03T01:32:52.411Z,89137.00
2023-02-03T01:33:52.295Z,89135.00
2023-02-03T01:34:52.278Z,89131.00
2023-02-03T01:35:52.243Z,89129.00
2023-02-03T01:36:52.213Z,89133.00
2023-02-03T01:37:52.192Z,89139.00
2023-02-03T01:38:52.169Z,89139.00
2023-02-03T01:39:52.129Z,89141.00
2023-02-03T01:40:52.100Z,89143.00
2023-02-03T01:41:52.078Z,89141.00
2023-02-03T01:42:52.059Z,89145.00
2023-02-03T01:43:52.058Z,89149.00
2023-02-03T01:44:52.064Z,89147.00
2023-02-03T01:45:52.035Z,89149.00
2023-02-03T01:46:51.953Z,89149.00
2023-02-03T01:47:51.936Z,89153.00
2023-02-03T01:48:51.907Z,89155.00
2023-02-03T01:49:51.877Z,89151.00
2023-02-03T01:50:51.855Z,89149.00
2023-02-03T01:51:51.822Z,89147.00
2023-02-03T01:52:51.801Z,89143.00
2023-02-03T01:53:51.777Z,89143.00
2023-02-03T01:54:51.745Z,89145.00
2023-02-03T01:55:51.746Z,89145.00
2023-02-03T01:56:51.705Z,89147.00
2023-02-03T01:57:51.660Z,89145.00
2023-02-03T01:58:51.649Z,89139.00
2023-02-03T01:59:51.634Z,89137.00
2023-02-03T02:00:51.582Z,89139.00
2023-02-03T02:01:51.553Z,89137.00
2023-02-03T02:02:51.559Z,89135.00
2023-02-03T02:03:51.500Z,89127.00
2023-02-03T02:04:51.490Z,89126.00
2023-02-03T02:05:51.457Z,89120.00
2023-02-03T02:06:51.436Z,89116.00
2023-02-03T02:07:51.406Z,89116.00
2023-02-03T02:08:51.381Z,89118.00
2023-02-03T02:09:51.359Z,89120.00
2023-02-03T02:10:51.331Z,89118.00
2023-02-03T02:11:51.293Z,89114.00
2023-02-03T02:12:51.284Z,89114.00
2023-02-03T02:13:51.264Z,89116.00
2023-02-03T02:14:51.222Z,89118.00
2023-02-03T02:15:51.227Z,89122.00
2023-02-03T02:16:51.183Z,89126.00
2023-02-03T02:17:51.144Z,89127.00
2023-02-03T02:18:51.131Z,89133.00
2023-02-03T02:19:51.103Z,89137.00
2023-02-03T02:20:51.070Z,89139.00
2023-02-03T02:21:51.041Z,89139.00
2023-02-03T02:22:51.006Z,89143.00
2023-02-03T02:23:51.033Z,89147.00
2023-02-03T02:24:50.951Z,89151.00
2023-02-03T02:25:50.918Z,89149.00
2023-02-03T02:26:50.901Z,89147.00
2023-02-03T02:27:50.911Z,89139.00
2023-02-03T02:28:50.852Z,89139.00
2023-02-03T02:29:50.823Z,89137.00
2023-02-03T02:30:50.886Z,89137.00
2023-02-03T02:31:50.983Z,89137.00
2023-02-03T02:32:50.744Z,89135.00
2023-02-03T02:33:50.722Z,89137.00
2023-02-03T02:34:50.697Z,89139.00
2023-02-03T02:35:50.659Z,89135.00
2023-02-03T02:36:50.654Z,89131.00
2023-02-03T02:37:50.601Z,89131.00
2023-02-03T02:38:50.584Z,89129.00
2023-02-03T02:39:50.551Z,89129.00
2023-02-03T02:40:50.525Z,89129.00
2023-02-03T02:41:50.503Z,89133.00
2023-02-03T02:42:50.464Z,89135.00
2023-02-03T02:43:50.422Z,89137.00
2023-02-03T02:44:50.403Z,89133.00
2023-02-03T02:45:50.360Z,89129.00
2023-02-03T02:46:50.341Z,89129.00
2023-02-03T02:47:50.294Z,89129.00
2023-02-03T02:48:50.269Z,89127.00
2023-02-03T02:49:50.240Z,89127.00
2023-02-03T02:50:50.753Z,89129.00
2023-02-03T02:51:50.171Z,89131.00
2023-02-03T02:52:50.129Z,89135.00
2023-02-03T02:53:50.103Z,89133.00
2023-02-03T02:54:50.066Z,89131.00
2023-02-03T02:55:50.042Z,89129.00
2023-02-03T02:56:50.013Z,89129.00
2023-02-03T02:57:49.978Z,89127.00
2023-02-03T02:58:49.963Z,89129.00
2023-02-03T02:59:49.948Z,89131.00
2023-02-03T03:00:49.882Z,89129.00
2023-02-03T03:01:49.940Z,89127.00
2023-02-03T03:02:49.851Z,89129.00
2023-02-03T03:03:49.815Z,89133.00
2023-02-03T03:04:49.821Z,89137.00
2023-02-03T03:05:49.757Z,89141.00
2023-02-03T03:06:49.725Z,89139.00
2023-02-03T03:07:49.685Z,89139.00
2023-02-03T03:08:49.652Z,89137.00
2023-02-03T03:09:49.626Z,89133.00
2023-02-03T03:10:49.591Z,89133.00
2023-02-03T03:11:49.562Z,89135.00
2023-02-03T03:12:49.544Z,89139.00
2023-02-03T03:13:49.533Z,89135.00
2023-02-03T03:14:49.490Z,89135.00
2023-02-03T03:15:49.476Z,89137.00
2023-02-03T03:16:49.426Z,89139.00
2023-02-03T03:17:49.391Z,89143.00
2023-02-03T03:18:49.362Z,89145.00
2023-02-03T03:19:49.377Z,89145.00
2023-02-03T03:20:49.313Z,89147.00
2023-02-03T03:21:49.270Z,89147.00
2023-02-03T03:22:49.262Z,89143.00
2023-02-03T03:23:49.222Z,89143.00
2023-02-03T03:24:49.196Z,89139.00
2023-02-03T03:25:49.163Z,89143.00
2023-02-03T03:26:49.134Z,89147.00
2023-02-03T03:27:49.160Z,89145.00
2023-02-03T03:28:49.094Z,89145.00
2023-02-03T03:29:49.051Z,89153.00
2023-02-03T03:30:49.103Z,89153.00
2023-02-03T03:31:49.064Z,89155.00
2023-02-03T03:32:48.955Z,89157.00
2023-02-03T03:33:48.940Z,89155.00
2023-02-03T03:34:48.941Z,89153.00
2023-02-03T03:35:48.888Z,89153.00
2023-02-03T03:36:48.849Z,89149.00
2023-02-03T03:37:48.809Z,89151.00
2023-02-03T03:38:48.789Z,89153.00
2023-02-03T03:39:48.780Z,89147.00
2023-02-03T03:40:48.729Z,89143.00
2023-02-03T03:41:48.712Z,89149.00
2023-02-03T03:42:48.679Z,89155.00
2023-02-03T03:43:48.649Z,89155.00
2023-02-03T03:44:48.629Z,89155.00
2023-02-03T03:45:48.594Z,89159.00
2023-02-03T03:46:48.616Z,89163.00
2023-02-03T03:47:48.556Z,89163.00
2023-02-03T03:48:48.521Z,89159.00
2023-02-03T03:49:48.487Z,89155.00
2023-02-03T03:50:48.466Z,89151.00
2023-02-03T03:51:48.434Z,89155.00
2023-02-03T03:52:48.420Z,89155.00
2023-02-03T03:53:48.386Z,89161.00
2023-02-03T03:54:48.357Z,89157.00
2023-02-03T03:55:48.327Z,89153.00
2023-02-03T03:56:48.299Z,89153.00
2023-02-03T03:57:48.262Z,89151.00
2023-02-03T03:58:48.235Z,89153.00
2023-02-03T03:59:48.197Z,89157.00
2023-02-03T04:00:48.161Z,89157.00
2023-02-03T04:01:48.259Z,89153.00
2023-02-03T04:02:48.192Z,89153.00
2023-02-03T04:03:48.116Z,89157.00
2023-02-03T04:04:48.048Z,89159.00
2023-02-03T04:05:48.029Z,89161.00
2023-02-03T04:06:48.076Z,89163.00
2023-02-03T04:07:47.967Z,89153.00
2023-02-03T04:08:47.938Z,89141.00
2023-02-03T04:09:47.905Z,89139.00
2023-02-03T04:10:47.876Z,89141.00
2023-02-03T04:11:47.851Z,89145.00
2023-02-03T04:12:47.841Z,89137.00
2023-02-03T04:13:47.811Z,89141.00
2023-02-03T04:14:47.789Z,89139.00
2023-02-03T04:15:47.809Z,89143.00
2023-02-03T04:16:47.722Z,89143.00
2023-02-03T04:17:47.684Z,89141.00
2023-02-03T04:18:47.653Z,89137.00
2023-02-03T04:19:47.639Z,89147.00
2023-02-03T04:20:47.611Z,89155.00
2023-02-03T04:21:47.580Z,89169.00
2023-02-03T04:22:47.547Z,89173.00
2023-02-03T04:23:47.517Z,89173.00
2023-02-03T04:24:47.488Z,89176.00
2023-02-03T04:25:47.520Z,89178.00
2023-02-03T04:26:47.445Z,89180.00
2023-02-03T04:27:47.456Z,89194.00
2023-02-03T04:28:47.388Z,89198.00
2023-02-03T04:29:47.361Z,89196.00
2023-02-03T04:30:47.402Z,89192.00
2023-02-03T04:31:47.389Z,89190.00
2023-02-03T04:32:47.297Z,89198.00
2023-02-03T04:33:47.271Z,89186.00
2023-02-03T04:34:47.244Z,89178.00
2023-02-03T04:35:47.248Z,89173.00
2023-02-03T04:36:47.202Z,89171.00
2023-02-03T04:37:47.174Z,89167.00
2023-02-03T04:38:47.147Z,89167.00
2023-02-03T04:39:47.118Z,89169.00
2023-02-03T04:40:47.117Z,89167.00
2023-02-03T04:41:47.075Z,89161.00
2023-02-03T04:42:47.045Z,89159.00
2023-02-03T04:43:47.027Z,89157.00
2023-02-03T04:44:47.035Z,89157.00
2023-02-03T04:45:46.986Z,89159.00
2023-02-03T04:46:46.947Z,89161.00
2023-02-03T04:47:46.926Z,89159.00
2023-02-03T04:48:46.904Z,89159.00
2023-02-03T04:49:46.871Z,89153.00
2023-02-03T04:50:46.846Z,89153.00
2023-02-03T04:51:46.824Z,89153.00
2023-02-03T04:52:46.794Z,89149.00
2023-02-03T04:53:46.788Z,89147.00
2023-02-03T04:54:46.744Z,89145.00
2023-02-03T04:55:46.716Z,89153.00
2023-02-03T04:56:46.699Z,89147.00
2023-02-03T04:57:46.664Z,89145.00
2023-02-03T04:58:46.635Z,89141.00
2023-02-03T04:59:46.619Z,89137.00
2023-02-03T05:00:46.602Z,89141.00
2023-02-03T05:01:46.553Z,89153.00
2023-02-03T05:02:46.521Z,89159.00
2023-02-03T05:03:46.517Z,89161.00
2023-02-03T05:04:46.501Z,89159.00
2023-02-03T05:05:46.447Z,89159.00
2023-02-03T05:06:46.422Z,89163.00
2023-02-03T05:07:46.393Z,89167.00
2023-02-03T05:08:46.371Z,89167.00
2023-02-03T05:09:46.341Z,89163.00
2023-02-03T05:10:46.309Z,89155.00
2023-02-03T05:11:46.294Z,89155.00
2023-02-03T05:12:46.259Z,89155.00
2023-02-03T05:13:46.238Z,89163.00
2023-02-03T05:14:46.206Z,89176.00
2023-02-03T05:16:46.527Z,89194.00
2023-02-03T05:47:45.305Z,89252.00
2023-02-03T05:51:45.205Z,89252.00
2023-02-03T06:06:44.842Z,89260.00
2023-02-03T06:39:43.954Z,89278.00
2023-02-03T06:46:43.764Z,89264.00
2023-02-03T06:51:43.625Z,89231.00
2023-02-03T06:53:43.553Z,89229.00
2023-02-03T06:59:43.408Z,89226.00
2023-02-03T07:01:43.350Z,89224.00
2023-02-03T07:03:43.274Z,89220.00
2023-02-03T07:04:43.218Z,89216.00
2023-02-03T07:05:43.198Z,89214.00
2023-02-03T07:06:43.183Z,89216.00
2023-02-03T07:07:43.150Z,89214.00
2023-02-03T07:08:43.112Z,89214.00
2023-02-03T07:09:43.157Z,89216.00
2023-02-03T07:10:43.037Z,89218.00
2023-02-03T07:11:43.013Z,89226.00
2023-02-03T07:12:42.984Z,89231.00
2023-02-03T07:13:42.948Z,89229.00
2023-02-03T07:14:42.917Z,89228.00
2023-02-03T07:15:42.911Z,89228.00
2023-02-03T07:16:42.835Z,89226.00
2023-02-03T07:17:42.809Z,89228.00
2023-02-03T07:18:47.385Z,89233.00
2023-02-03T07:19:45.992Z,89231.00
2023-02-03T07:20:42.704Z,89231.00
2023-02-03T07:21:42.650Z,89233.00
2023-02-03T07:22:42.604Z,89233.00
2023-02-03T07:23:42.587Z,89228.00
2023-02-03T07:24:42.538Z,89224.00
2023-02-03T07:25:42.491Z,89224.00
2023-02-03T07:26:42.462Z,89228.00
2023-02-03T07:27:42.462Z,89231.00
2023-02-03T07:28:42.393Z,89235.00
2023-02-03T07:29:42.377Z,89235.00
2023-02-03T07:30:42.364Z,89248.00
2023-02-03T07:31:42.391Z,89254.00
2023-02-03T07:32:42.263Z,89254.00
2023-02-03T07:33:42.317Z,89254.00
2023-02-03T07:34:42.223Z,89256.00
2023-02-03T07:35:42.180Z,89256.00
2023-02-03T07:36:42.166Z,89258.00
2023-02-03T07:37:42.116Z,89262.00
2023-02-03T07:38:42.082Z,89262.00
2023-02-03T07:39:42.065Z,89268.00
2023-02-03T07:40:42.032Z,89270.00
2023-02-03T07:41:42.006Z,89274.00
2023-02-03T07:42:42.042Z,89274.00
2023-02-03T07:43:41.947Z,89278.00
2023-02-03T07:44:42.044Z,89276.00
2023-02-03T07:45:41.897Z,89280.00
2023-02-03T07:46:41.890Z,89280.00
2023-02-03T07:47:41.817Z,89282.00
2023-02-03T07:48:41.778Z,89278.00
2023-02-03T07:49:41.752Z,89280.00
2023-02-03T07:50:41.709Z,89280.00
2023-02-03T07:51:41.698Z,89282.00
2023-02-03T07:52:41.653Z,89278.00
2023-02-03T07:53:41.668Z,89280.00
2023-02-03T07:54:41.616Z,89282.00
2023-02-03T07:55:41.584Z,89284.00
2023-02-03T07:56:41.572Z,89282.00
2023-02-03T07:57:41.534Z,89282.00
2023-02-03T07:58:41.502Z,89278.00
2023-02-03T07:59:41.496Z,89276.00
2023-02-03T08:00:41.480Z,89274.00
2023-02-03T08:01:41.564Z,89270.00
2023-02-03T08:02:41.425Z,89270.00
2023-02-03T08:03:41.393Z,89270.00
2023-02-03T08:04:41.410Z,89272.00
2023-02-03T08:05:41.350Z,89268.00
2023-02-03T08:06:41.318Z,89264.00
2023-02-03T08:07:41.322Z,89264.00
2023-02-03T08:08:41.273Z,89264.00
2023-02-03T08:09:41.256Z,89266.00
2023-02-03T08:10:41.242Z,89270.00
2023-02-03T08:11:41.209Z,89274.00
2023-02-03T08:12:41.835Z,89274.00
2023-02-03T08:13:41.177Z,89278.00
2023-02-03T08:14:41.150Z,89282.00
2023-02-03T08:15:41.156Z,89282.00
2023-02-03T08:16:41.125Z,89286.00
2023-02-03T08:17:41.091Z,89284.00
2023-02-03T08:18:41.089Z,89286.00
2023-02-03T08:19:41.060Z,89286.00
2023-02-03T08:20:41.028Z,89286.00
2023-02-03T08:21:41.055Z,89286.00
2023-02-03T08:22:41.025Z,89288.00
2023-02-03T08:23:40.993Z,89290.00
2023-02-03T08:24:40.970Z,89292.00
2023-02-03T08:25:40.947Z,89296.00
2023-02-03T08:26:40.925Z,89297.00
2023-02-03T08:27:40.950Z,89297.00
2023-02-03T08:28:40.899Z,89294.00
2023-02-03T08:29:40.867Z,89292.00
2023-02-03T08:30:40.854Z,89292.00
2023-02-03T08:31:40.880Z,89294.00
2023-02-03T08:32:40.833Z,89294.00
2023-02-03T08:33:40.823Z,89294.00
2023-02-03T08:34:40.887Z,89294.00
2023-02-03T08:39:40.742Z,89288.00
2023-02-03T08:42:40.680Z,89290.00
2023-02-03T08:51:40.559Z,89278.00
2023-02-03T08:54:40.586Z,89264.00
2023-02-03T09:01:40.235Z,89264.00
2023-02-03T09:03:40.186Z,89258.00
2023-02-03T09:11:40.012Z,89268.00
2023-02-03T09:12:39.915Z,89266.00
2023-02-03T09:22:39.613Z,89231.00
2023-02-03T09:23:39.586Z,89242.00
2023-02-03T09:24:39.560Z,89235.00
2023-02-03T09:40:39.039Z,89218.00
2023-02-03T10:37:37.151Z,89190.00
2023-02-03T12:12:33.607Z,89076.00
2023-02-03T12:14:33.541Z,89074.00
2023-02-03T12:15:33.504Z,89074.00
2023-02-03T12:16:33.477Z,89076.00
2023-02-03T12:17:33.419Z,89072.00
2023-02-03T12:18:33.389Z,89067.00
2023-02-03T12:19:33.347Z,89063.00
2023-02-03T12:20:33.309Z,89059.00
2023-02-03T12:21:33.267Z,89059.00
2023-02-03T12:23:33.178Z,89067.00
2023-02-03T12:24:33.151Z,89072.00
2023-02-03T12:25:33.114Z,89074.00
2023-02-03T12:26:33.074Z,89076.00
2023-02-03T12:27:33.021Z,89074.00
2023-02-03T12:28:34.310Z,89078.00
2023-02-03T12:29:32.960Z,89074.00
2023-02-03T12:30:33.033Z,89065.00
2023-02-03T12:31:32.907Z,89065.00
2023-02-03T12:32:32.842Z,89057.00
2023-02-03T12:33:32.785Z,89063.00
2023-02-03T12:34:32.742Z,89063.00
2023-02-03T12:35:32.719Z,89067.00
2023-02-03T12:36:32.696Z,89061.00
2023-02-03T12:37:32.644Z,89059.00
2023-02-03T12:38:32.591Z,89059.00
2023-02-03T12:39:32.599Z,89055.00
2023-02-03T12:40:32.509Z,89053.00
2023-02-03T12:41:32.481Z,89045.00
2023-02-03T12:42:32.430Z,89043.00
2023-02-03T12:43:32.394Z,89045.00
2023-02-03T12:44:32.365Z,89033.00
2023-02-03T12:45:32.359Z,89033.00
2023-02-03T12:46:32.276Z,89025.00
2023-02-03T12:47:32.255Z,89033.00
2023-02-03T12:48:32.217Z,89041.00
2023-02-03T12:49:32.165Z,89045.00
2023-02-03T12:50:32.133Z,89043.00
2023-02-03T12:51:32.143Z,89037.00
2023-02-03T12:52:32.053Z,89033.00
2023-02-03T12:53:32.034Z,89033.00
2023-02-03T12:54:31.997Z,89039.00
2023-02-03T12:55:31.955Z,89047.00
2023-02-03T12:56:31.920Z,89051.00
2023-02-03T12:57:31.891Z,89043.00
2023-02-03T12:58:34.247Z,89037.00
2023-02-03T12:59:31.864Z,89031.00
2023-02-03T13:00:31.824Z,89035.00
2023-02-03T13:01:31.747Z,89033.00
2023-02-03T13:02:31.732Z,89035.00
2023-02-03T13:03:31.660Z,89037.00
2023-02-03T13:04:31.627Z,89037.00
2023-02-03T13:05:31.596Z,89033.00
2023-02-03T13:06:31.558Z,89037.00
2023-02-03T13:07:31.512Z,89045.00
2023-02-03T13:08:31.488Z,89047.00
2023-02-03T13:09:31.444Z,89043.00
2023-02-03T13:10:31.394Z,89035.00
2023-02-03T13:11:31.366Z,89031.00
2023-02-03T13:12:31.333Z,89031.00
2023-02-03T13:13:31.295Z,89031.00
2023-02-03T13:14:31.267Z,89035.00
2023-02-03T13:15:31.221Z,89031.00
2023-02-03T13:16:31.247Z,89031.00
2023-02-03T13:17:31.163Z,89027.00
2023-02-03T13:18:31.105Z,89023.00
2023-02-03T13:19:31.071Z,89020.00
2023-02-03T13:20:31.208Z,89018.00
2023-02-03T13:21:30.986Z,89016.00
2023-02-03T13:22:30.963Z,89016.00
2023-02-03T13:23:30.929Z,89010.00
2023-02-03T13:24:30.891Z,89010.00
2023-02-03T13:25:30.860Z,89014.00
2023-02-03T15:07:27.319Z,88953.00
2023-02-03T15:08:27.283Z,88951.00
2023-02-03T15:09:27.252Z,88955.00
2023-02-03T15:10:27.224Z,88951.00
2023-02-03T15:11:27.189Z,88955.00
2023-02-03T15:12:27.188Z,88963.00
2023-02-03T15:13:27.173Z,88969.00
2023-02-03T15:14:27.102Z,88971.00
2023-02-03T15:15:27.542Z,88975.00
2023-02-03T15:16:27.062Z,88977.00
2023-02-03T15:17:27.048Z,88973.00
2023-02-03T15:18:26.972Z,88959.00
2023-02-03T15:19:26.953Z,88955.00
2023-02-03T15:20:26.917Z,88955.00
2023-02-03T15:21:26.890Z,88955.00
2023-02-03T15:22:26.856Z,88949.00
2023-02-03T15:23:26.827Z,88946.00
2023-02-03T15:24:26.790Z,88942.00
2023-02-03T15:25:27.171Z,88942.00
2023-02-03T15:26:26.751Z,88938.00
2023-02-03T15:27:26.712Z,88936.00
2023-02-03T15:28:26.679Z,88938.00
2023-02-03T15:29:26.667Z,88942.00
2023-02-03T15:30:26.611Z,88948.00
2023-02-03T15:31:26.695Z,88951.00
2023-02-03T15:32:28.946Z,88948.00
2023-02-03T15:33:26.655Z,88940.00
2023-02-03T15:34:26.570Z,88934.00
2023-02-03T15:35:26.810Z,88932.00
2023-02-03T15:36:26.502Z,88928.00
2023-02-03T15:37:26.526Z,88926.00
2023-02-03T15:38:26.435Z,88930.00
2023-02-03T15:39:26.405Z,88926.00
2023-02-03T15:40:26.417Z,88926.00
2023-02-03T15:41:26.351Z,88924.00
2023-02-03T15:42:26.323Z,88926.00
2023-02-03T15:43:26.246Z,88930.00
2023-02-03T15:44:26.215Z,88930.00
2023-02-03T15:45:26.190Z,88924.00
2023-02-03T15:46:26.194Z,88918.00
2023-02-03T15:47:26.119Z,88914.00
2023-02-03T15:48:26.072Z,88916.00
2023-02-03T15:49:26.059Z,88924.00
2023-02-03T15:50:26.017Z,88922.00
2023-02-03T15:51:25.982Z,88914.00
2023-02-03T15:52:25.951Z,88902.00
2023-02-03T15:53:29.692Z,88897.00
2023-02-03T15:54:26.877Z,88895.00
2023-02-03T15:55:25.852Z,88895.00
2023-02-03T15:56:25.801Z,88899.00
2023-02-03T15:57:25.801Z,88897.00
2023-02-03T15:58:25.731Z,88893.00
2023-02-03T15:59:25.703Z,88887.00
2023-02-03T16:00:25.668Z,88885.00
2023-02-03T16:01:25.655Z,88883.00
2023-02-03T16:02:25.623Z,88885.00
2023-02-03T16:03:25.594Z,88887.00
2023-02-03T16:04:25.559Z,88889.00
2023-02-03T16:05:25.533Z,88887.00
2023-02-03T16:06:25.643Z,88885.00
2023-02-03T16:07:25.472Z,88885.00
2023-02-03T16:08:25.430Z,88889.00
2023-02-03T16:09:25.407Z,88895.00
2023-02-03T16:10:25.363Z,88895.00
2023-02-03T16:11:25.327Z,88895.00
2023-02-03T16:12:25.299Z,88897.00
2023-02-03T16:13:25.275Z,88902.00
2023-02-03T16:14:25.235Z,88902.00
2023-02-03T16:15:25.183Z,88902.00
2023-02-03T16:16:25.170Z,88899.00
2023-02-03T16:17:25.136Z,88901.00
2023-02-03T16:18:25.100Z,88902.00
2023-02-03T16:19:25.067Z,88906.00
2023-02-03T16:20:25.033Z,88910.00
2023-02-03T16:21:25.013Z,88912.00
2023-02-03T16:22:24.971Z,88910.00
2023-02-03T16:23:24.949Z,88908.00
2023-02-03T16:24:24.903Z,88910.00
2023-02-03T16:25:24.870Z,88916.00
2023-02-03T16:26:24.838Z,88908.00
2023-02-03T16:27:24.811Z,88897.00
2023-02-03T16:28:24.783Z,88895.00
2023-02-03T16:29:24.750Z,88895.00
2023-02-03T16:30:24.727Z,88904.00
2023-02-03T16:31:24.789Z,88916.00
2023-02-03T16:32:24.661Z,88922.00
2023-02-03T16:33:24.647Z,88926.00
2023-02-03T16:34:24.609Z,88924.00
2023-02-03T16:35:24.601Z,88924.00
2023-02-03T16:36:24.548Z,88932.00
2023-02-03T16:37:24.589Z,88936.00
2023-02-03T16:38:24.492Z,88930.00
2023-02-03T16:39:24.459Z,88930.00
2023-02-03T16:40:24.428Z,88932.00
2023-02-03T16:41:24.401Z,88924.00
2023-02-03T16:42:24.386Z,88924.00
2023-02-03T16:43:24.335Z,88934.00
2023-02-03T16:44:24.319Z,88938.00
2023-02-03T16:45:24.288Z,88936.00
2023-02-03T16:46:24.353Z,88936.00
2023-02-03T16:47:24.229Z,88934.00
2023-02-03T16:48:24.230Z,88932.00
2023-02-03T16:49:24.193Z,88928.00
2023-02-03T16:50:37.428Z,88924.00
2023-02-03T16:51:25.135Z,88926.00
2023-02-03T16:52:24.122Z,88928.00
2023-02-03T16:53:24.080Z,88928.00
2023-02-03T16:54:24.053Z,88926.00
2023-02-03T16:55:24.015Z,88924.00
2023-02-03T16:56:24.000Z,88918.00
2023-02-03T16:57:23.967Z,88922.00
2023-02-03T16:58:23.954Z,88920.00
2023-02-03T16:59:23.914Z,88922.00
2023-02-03T17:00:23.894Z,88922.00
2023-02-03T17:01:23.860Z,88924.00
2023-02-03T17:02:23.890Z,88920.00
2023-02-03T17:03:23.895Z,88926.00
2023-02-03T17:04:23.781Z,88932.00
2023-02-03T17:05:23.749Z,88928.00
2023-02-03T17:06:23.744Z,88918.00
2023-02-03T17:07:23.712Z,88910.00
2023-02-03T17:08:23.680Z,88906.00
2023-02-03T17:09:23.684Z,88908.00
2023-02-03T17:10:23.694Z,88912.00
2023-02-03T17:11:23.571Z,88914.00
2023-02-03T17:12:23.546Z,88910.00
2023-02-03T17:13:23.530Z,88908.00
2023-02-03T17:14:23.495Z,88904.00
2023-02-03T17:15:23.478Z,88906.00
2023-02-03T17:16:23.515Z,88916.00
2023-02-03T17:17:23.413Z,88922.00
2023-02-03T17:18:23.391Z,88912.00
2023-02-03T17:19:23.366Z,88902.00
2023-02-03T17:20:23.347Z,88897.00
2023-02-03T17:21:23.317Z,88895.00
2023-02-03T17:22:23.290Z,88897.00
2023-02-03T17:23:23.257Z,88901.00
2023-02-03T17:24:23.235Z,88910.00
2023-02-03T17:25:23.214Z,88904.00
2023-02-03T17:26:23.183Z,88902.00
2023-02-03T17:27:23.157Z,88902.00
2023-02-03T17:28:23.124Z,88908.00
2023-02-03T17:29:23.091Z,88912.00
2023-02-03T17:30:23.073Z,88908.00
2023-02-03T17:31:23.215Z,88901.00
2023-02-03T17:32:23.026Z,88891.00
2023-02-03T17:33:23.000Z,88893.00
2023-02-03T17:34:22.966Z,88904.00
2023-02-03T17:35:22.962Z,88904.00
2023-02-03T17:36:22.916Z,88897.00
2023-02-03T17:37:22.884Z,88895.00
2023-02-03T17:38:22.864Z,88897.00
2023-02-03T17:53:46.756Z,88895.00
2023-02-03T21:44:41.080Z,88922.00
2023-02-03T21:45:41.118Z,88922.00
2023-02-03T21:46:41.023Z,88922.00
2023-02-03T21:47:40.997Z,88922.00
2023-02-03T21:48:40.993Z,88920.00
2023-02-03T21:49:40.965Z,88924.00
2023-02-03T21:50:40.923Z,88926.00
2023-02-03T21:51:40.898Z,88926.00
2023-02-03T21:52:40.862Z,88932.00
2023-02-03T21:53:40.844Z,88928.00
2023-02-03T21:54:40.816Z,88918.00
2023-02-03T21:55:40.795Z,88924.00
2023-02-03T21:56:40.762Z,88930.00
2023-02-03T21:57:40.748Z,88930.00
2023-02-03T21:58:40.735Z,88934.00
